Time;durP1;ratioP1;P1;durP2;ratioP2;P2;SDS_P1;SDS_P2;PMS_P1;PMS_P2;Temp;Humidity;BMP_temperature;BMP_pressure;BME280_temperature;BME280_humidity;BME280_pressure;Samples;Min_cycle;Max_cycle;Signal;HPM_P1;HPM_P2
2022/01/07 00:04:07;;;;;;;9.93;7.15;;;;;;;6.03;74.03;100709.72;4986816;28;20497;-71
2022/01/07 00:13:59;;;;;;;9.23;5.95;;;;;;;6.24;72.89;100707.59;4978253;28;20112;-72
2022/01/07 00:16:24;;;;;;;9.65;5.90;;;;;;;6.29;73.60;100708.56;4983543;28;20073;-71
2022/01/07 00:18:50;;;;;;;8.45;5.28;;;;;;;6.23;73.58;100724.09;4992044;28;20079;-71
2022/01/07 00:21:15;;;;;;;10.07;6.07;;;;;;;6.19;73.78;100723.97;4989315;28;20491;-72
2022/01/07 00:23:41;;;;;;;9.35;6.10;;;;;;;5.86;74.09;100715.38;4979965;28;20410;-73
2022/01/07 00:26:07;;;;;;;8.20;5.03;;;;;;;5.89;73.90;100702.41;4976091;28;20081;-73
2022/01/07 00:28:32;;;;;;;10.35;5.63;;;;;;;6.08;73.96;100735.00;4974034;28;20043;-73
2022/01/07 00:31:13;;;;;;;9.77;5.28;;;;;;;6.07;73.97;100720.22;4981601;28;20089;-72
2022/01/07 00:33:38;;;;;;;9.70;5.78;;;;;;;5.36;75.49;100717.59;4977374;28;20129;-72
2022/01/07 00:36:10;;;;;;;7.57;5.50;;;;;;;4.94;77.14;100712.09;4981659;28;20085;-72
2022/01/07 00:39:13;;;;;;;10.55;6.07;;;;;;;5.25;76.43;100699.09;4983042;28;20069;-74
2022/01/07 00:41:39;;;;;;;8.80;5.63;;;;;;;5.83;74.65;100685.75;4980074;28;20046;-76
2022/01/07 00:44:04;;;;;;;11.07;5.78;;;;;;;6.09;73.63;100696.84;4974392;28;20382;-73
2022/01/07 00:46:30;;;;;;;9.77;6.70;;;;;;;6.22;73.66;100703.19;4978083;28;20452;-71
2022/01/07 00:48:56;;;;;;;9.85;6.20;;;;;;;5.91;74.61;100695.50;4983239;28;20590;-72
2022/01/07 00:51:21;;;;;;;7.63;5.43;;;;;;;6.01;73.91;100693.16;4984591;28;20549;-71
2022/01/07 00:53:47;;;;;;;9.48;5.50;;;;;;;6.12;74.18;100716.00;4979747;28;20022;-72
2022/01/07 00:57:04;;;;;;;7.80;6.03;;;;;;;6.10;74.09;100711.59;4976967;28;20057;-71
2022/01/07 00:59:29;;;;;;;8.07;6.45;;;;;;;5.90;74.24;100706.78;4977107;28;20054;-71
2022/01/07 01:01:54;;;;;;;8.88;5.35;;;;;;;5.89;74.64;100727.56;4983980;28;20038;-71
2022/01/07 01:04:20;;;;;;;9.73;6.07;;;;;;;5.56;75.40;100736.31;4983909;28;20501;-72
2022/01/07 01:06:46;;;;;;;10.00;6.38;;;;;;;5.61;75.30;100726.91;4975474;28;20382;-71
2022/01/07 01:09:12;;;;;;;7.40;4.70;;;;;;;5.70;74.88;100754.88;4970229;28;20475;-71
2022/01/07 01:11:38;;;;;;;10.35;6.50;;;;;;;5.49;74.99;100734.41;4981493;28;20064;-71
2022/01/07 01:14:18;;;;;;;7.95;5.30;;;;;;;5.62;75.77;100736.47;4980874;28;20093;-71
2022/01/07 01:16:44;;;;;;;10.15;6.78;;;;;;;5.63;74.95;100738.22;4980055;28;20042;-71
2022/01/07 01:19:10;;;;;;;12.25;6.63;;;;;;;5.47;75.26;100723.94;4975707;28;20438;-71
2022/01/07 01:21:36;;;;;;;8.98;6.40;;;;;;;5.57;75.27;100743.31;4971449;28;20058;-72
2022/01/07 01:24:02;;;;;;;8.30;6.35;;;;;;;5.70;74.64;100728.84;4970583;28;20035;-78
2022/01/07 01:26:28;;;;;;;9.00;6.53;;;;;;;5.72;75.57;100707.22;4979169;28;20104;-71
2022/01/07 01:28:53;;;;;;;8.25;5.35;;;;;;;5.68;75.16;100712.31;4972027;28;20475;-71
2022/01/07 01:31:19;;;;;;;13.85;6.38;;;;;;;5.55;74.91;100738.88;4970906;28;20431;-72
2022/01/07 01:33:45;;;;;;;9.80;5.70;;;;;;;5.35;75.63;100733.16;4976205;28;20038;-72
2022/01/07 01:36:11;;;;;;;10.82;6.43;;;;;;;5.34;74.98;100723.56;4974050;28;20034;-72
2022/01/07 01:38:38;;;;;;;10.85;6.28;;;;;;;5.44;75.47;100744.69;4981282;28;20022;-72
2022/01/07 01:41:04;;;;;;;8.10;6.00;;;;;;;5.61;74.06;100754.66;4979494;28;20045;-70
2022/01/07 01:43:31;;;;;;;7.70;4.85;;;;;;;5.61;74.31;100742.50;4981419;28;20089;-70
2022/01/07 01:45:56;;;;;;;12.40;7.00;;;;;;;5.72;74.06;100759.28;4979118;28;20046;-72
2022/01/07 01:48:23;;;;;;;10.63;6.38;;;;;;;5.73;74.31;100747.16;4978159;28;20038;-72
2022/01/07 01:50:48;;;;;;;14.15;7.35;;;;;;;5.75;74.04;100750.66;4974406;28;20042;-72
2022/01/07 01:53:15;;;;;;;8.40;5.63;;;;;;;5.86;73.66;100770.06;4980434;28;20030;-73
2022/01/07 01:55:41;;;;;;;11.20;6.82;;;;;;;5.69;73.38;100756.63;4978141;28;20122;-71
2022/01/07 02:04:39;;;;;;;11.18;6.68;;;;;;;5.61;74.72;100767.66;4969590;28;20046;-73
2022/01/07 02:07:11;;;;;;;10.13;5.65;;;;;;;5.98;73.67;100789.47;4981643;28;20486;-72
2022/01/07 02:09:37;;;;;;;9.32;6.53;;;;;;;5.61;74.02;100780.69;4980969;28;20042;-72
2022/01/07 02:12:05;;;;;;;8.73;6.57;;;;;;;5.54;73.99;100771.81;4987783;28;20042;-72
2022/01/07 02:14:31;;;;;;;12.18;7.00;;;;;;;5.80;74.07;100785.50;4972423;28;20037;-72
2022/01/07 02:17:11;;;;;;;13.38;6.32;;;;;;;5.44;74.85;100793.25;4975693;28;20039;-71
2022/01/07 02:19:37;;;;;;;8.82;6.57;;;;;;;5.21;74.26;100784.81;4971436;28;20041;-73
2022/01/07 02:22:04;;;;;;;15.23;7.00;;;;;;;5.46;75.79;100800.25;4973833;28;20031;-73
2022/01/07 02:24:50;;;;;;;10.77;7.53;;;;;;;5.83;74.73;100801.22;4980550;28;20120;-72
2022/01/07 02:27:17;;;;;;;10.80;6.60;;;;;;;5.57;74.34;100784.94;4970452;28;20047;-72
2022/01/07 02:29:44;;;;;;;10.13;7.40;;;;;;;5.32;74.64;100785.13;4982180;28;20109;-72
2022/01/07 02:32:10;;;;;;;11.98;7.13;;;;;;;5.57;73.93;100810.06;4977169;28;20066;-74
2022/01/07 02:34:36;;;;;;;19.88;8.15;;;;;;;5.72;73.35;100820.91;4970343;28;20112;-73
2022/01/07 02:37:02;;;;;;;11.27;8.15;;;;;;;5.70;73.06;100809.56;4983613;28;20054;-73
2022/01/07 02:39:28;;;;;;;13.90;8.32;;;;;;;5.69;72.56;100800.00;4980840;28;20057;-74
2022/01/07 02:41:53;;;;;;;9.80;6.85;;;;;;;5.73;72.80;100814.84;4975008;28;20378;-75
2022/01/07 02:44:18;;;;;;;8.38;7.07;;;;;;;5.93;72.52;100825.78;4981437;28;20455;-74
2022/01/07 02:46:45;;;;;;;14.10;8.20;;;;;;;5.80;72.89;100823.69;4974923;28;20129;-71
2022/01/07 02:49:19;;;;;;;11.18;6.50;;;;;;;5.34;73.38;100832.84;4976728;28;20474;-73
2022/01/07 02:51:45;;;;;;;12.38;6.93;;;;;;;5.34;74.20;100846.78;4974934;28;20049;-72
2022/01/07 02:54:11;;;;;;;11.38;7.53;;;;;;;5.32;74.28;100825.03;4976923;28;20054;-71
2022/01/07 02:56:38;;;;;;;13.27;7.63;;;;;;;5.43;75.03;100830.50;4969109;28;20081;-73
2022/01/07 02:59:05;;;;;;;12.43;8.15;;;;;;;5.73;74.50;100846.09;4982547;28;20062;-71
2022/01/07 03:01:31;;;;;;;8.98;7.07;;;;;;;5.56;73.76;100856.03;4983745;28;20057;-71
2022/01/07 03:03:57;;;;;;;9.90;7.22;;;;;;;5.62;74.03;100851.03;4975143;28;20130;-71
2022/01/07 03:06:22;;;;;;;12.48;7.57;;;;;;;5.48;74.34;100855.84;4989424;28;20045;-71
2022/01/07 03:08:50;;;;;;;9.63;7.63;;;;;;;5.55;73.87;100866.41;4986893;28;20027;-71
2022/01/07 03:11:16;;;;;;;9.68;6.38;;;;;;;5.46;74.54;100862.72;4986377;28;20061;-76
2022/01/07 03:13:42;;;;;;;14.50;8.45;;;;;;;5.58;74.31;100859.56;4981497;28;20050;-72
2022/01/07 03:16:07;;;;;;;14.10;9.55;;;;;;;5.87;73.33;100880.31;4978200;28;20046;-72
2022/01/07 03:18:33;;;;;;;17.77;9.02;;;;;;;5.75;74.05;100886.06;4979513;28;20497;-76
2022/01/07 03:21:25;;;;;;;13.80;8.82;;;;;;;5.81;73.57;100882.75;4980887;28;20030;-72
2022/01/07 03:23:51;;;;;;;13.10;8.40;;;;;;;5.75;74.22;100887.78;4977094;28;20050;-73
2022/01/07 03:26:16;;;;;;;10.85;8.20;;;;;;;5.74;74.32;100897.34;4986467;28;20165;-72
2022/01/07 03:28:44;;;;;;;12.23;8.43;;;;;;;5.62;74.58;100899.56;4985701;28;20046;-72
2022/01/07 03:31:10;;;;;;;15.93;8.10;;;;;;;5.24;74.70;100874.25;4977826;28;20039;-71
2022/01/07 03:33:35;;;;;;;14.85;8.68;;;;;;;4.95;76.69;100891.56;4980523;28;20097;-73
2022/01/07 03:36:19;;;;;;;11.70;8.68;;;;;;;5.50;75.26;100913.13;4981764;28;20041;-72
2022/01/07 03:38:45;;;;;;;12.88;8.13;;;;;;;5.79;74.70;100923.50;4976871;28;20022;-71
2022/01/07 03:41:10;;;;;;;11.05;8.68;;;;;;;5.80;74.24;100915.72;4984829;28;20088;-71
2022/01/07 03:43:42;;;;;;;12.40;9.07;;;;;;;5.59;75.33;100923.81;4985076;28;20054;-74
2022/01/07 03:46:07;;;;;;;12.10;8.77;;;;;;;5.64;75.56;100930.03;4988010;28;20168;-72
2022/01/07 03:48:33;;;;;;;13.48;9.20;;;;;;;5.54;75.81;100914.97;4972714;28;20054;-73
2022/01/07 03:50:58;;;;;;;11.73;8.77;;;;;;;5.75;74.39;100932.06;4990135;28;20505;-73
2022/01/07 03:53:25;;;;;;;16.92;8.30;;;;;;;5.47;75.67;100942.56;4991114;28;20030;-73
2022/01/07 03:55:52;;;;;;;12.75;9.43;;;;;;;5.59;75.18;100942.03;4993950;28;20051;-73
2022/01/07 04:08:24;;;;;;;11.10;7.90;;;;;;;6.02;74.85;100947.59;4973615;28;20073;-73
2022/01/07 04:10:49;;;;;;;10.60;8.05;;;;;;;5.78;74.70;100920.00;4975367;28;20038;-73
2022/01/07 04:13:15;;;;;;;12.68;9.05;;;;;;;5.32;75.93;100925.63;4985661;28;20382;-73
2022/01/07 04:15:40;;;;;;;13.10;9.60;;;;;;;5.69;75.00;100951.88;4970394;28;20402;-72
2022/01/07 04:18:06;;;;;;;11.68;8.55;;;;;;;5.86;74.64;100948.88;4978098;28;20038;-72
2022/01/07 04:20:34;;;;;;;11.50;8.40;;;;;;;5.80;74.14;100949.56;4977022;28;20089;-72
2022/01/07 04:23:00;;;;;;;18.85;8.90;;;;;;;4.94;76.27;100933.13;4978545;28;20044;-71
2022/01/07 04:25:27;;;;;;;12.18;9.98;;;;;;;4.33;78.26;100926.81;4968787;28;20057;-72
2022/01/07 04:27:57;;;;;;;16.77;9.75;;;;;;;4.52;78.49;100938.72;4979784;28;20104;-72
2022/01/07 04:30:23;;;;;;;12.93;9.00;;;;;;;5.07;78.19;100945.69;4977131;28;20066;-72
2022/01/07 04:32:49;;;;;;;13.02;8.75;;;;;;;5.54;76.25;100943.63;4978921;28;20030;-72
2022/01/07 04:35:16;;;;;;;14.50;9.57;;;;;;;5.72;75.14;100948.47;4979596;28;20386;-71
2022/01/07 04:37:42;;;;;;;11.98;9.10;;;;;;;5.61;75.76;100935.16;4985695;28;20394;-71
2022/01/07 04:43:24;;;;;;;14.25;9.63;;;;;;;5.79;75.14;100973.84;4986287;28;20053;-73
2022/01/07 04:45:51;;;;;;;15.38;8.68;;;;;;;5.58;75.09;100970.63;4984222;28;20041;-72
2022/01/07 04:48:17;;;;;;;11.45;8.88;;;;;;;5.18;77.09;100972.91;4985209;28;20046;-73
2022/01/07 04:50:42;;;;;;;12.88;8.88;;;;;;;4.82;78.43;100964.81;4988428;28;20018;-72
2022/01/07 04:53:08;;;;;;;11.85;8.88;;;;;;;4.53;79.40;100979.47;4983701;28;20063;-72
2022/01/07 04:55:38;;;;;;;14.07;10.02;;;;;;;5.03;79.02;100983.75;4989221;28;20038;-73
2022/01/07 04:58:14;;;;;;;15.90;10.30;;;;;;;4.82;78.88;100970.03;4977268;28;20113;-72
2022/01/07 05:00:42;;;;;;;21.80;12.32;;;;;;;4.75;79.50;100962.88;4984689;28;20100;-73
2022/01/07 05:03:09;;;;;;;15.43;11.18;;;;;;;4.60;80.42;100984.94;4981252;28;20111;-72
2022/01/07 05:05:44;;;;;;;16.65;9.88;;;;;;;4.57;81.51;100973.56;4981724;28;20089;-72
2022/01/07 05:08:09;;;;;;;18.63;12.18;;;;;;;4.74;81.18;100974.97;4975853;28;20042;-72
2022/01/07 05:10:36;;;;;;;20.90;14.13;;;;;;;5.13;80.99;100994.41;4980313;28;20049;-71
2022/01/07 05:16:30;;;;;;;19.20;13.02;;;;;;;5.15;81.74;101011.84;4977506;28;20093;-72
2022/01/07 05:18:57;;;;;;;22.27;14.60;;;;;;;4.96;82.14;100999.94;4974786;28;20050;-76
2022/01/07 05:21:23;;;;;;;19.38;12.70;;;;;;;5.19;81.65;101003.28;4975945;28;20049;-71
2022/01/07 05:23:48;;;;;;;21.95;13.68;;;;;;;5.54;79.95;100987.00;4970451;28;20027;-73
2022/01/07 05:26:15;;;;;;;17.98;13.02;;;;;;;5.73;79.56;101017.94;5001656;28;20087;-73
2022/01/07 05:28:40;;;;;;;16.10;11.48;;;;;;;5.92;79.26;101028.06;4985574;28;20074;-73
2022/01/07 05:33:12;;;;;;;17.02;12.10;;;;;;;5.98;77.90;101022.16;5078932;27;20622;-72
2022/01/07 05:35:38;;;;;;;16.50;11.52;;;;;;;6.11;76.93;101044.22;5079700;28;20124;-72
2022/01/07 05:38:03;;;;;;;19.73;12.07;;;;;;;6.16;77.02;101040.03;5043201;28;20106;-72
2022/01/07 05:40:29;;;;;;;20.08;12.60;;;;;;;6.02;76.34;101041.38;5031436;28;20037;-72
2022/01/07 05:42:54;;;;;;;21.55;12.50;;;;;;;5.79;76.62;101028.53;5036634;28;20048;-71
2022/01/07 05:48:45;;;;;;;17.83;14.68;;;;;;;6.07;76.71;101051.09;5042001;28;20048;-71
2022/01/07 05:51:23;;;;;;;19.35;13.77;;;;;;;6.11;76.07;101031.19;5041451;28;20061;-72
2022/01/07 05:54:03;;;;;;;24.67;12.88;;;;;;;6.05;76.52;101039.72;5058928;28;20040;-71
2022/01/07 05:56:29;;;;;;;20.67;12.50;;;;;;;6.19;76.63;101062.69;5056098;28;20075;-72
2022/01/07 05:58:54;;;;;;;20.25;13.90;;;;;;;6.20;76.90;101047.09;5056884;28;20041;-73
2022/01/07 06:01:20;;;;;;;17.42;14.32;;;;;;;6.09;76.92;101071.97;5051699;28;20435;-74
2022/01/07 06:03:45;;;;;;;16.52;12.88;;;;;;;5.88;76.33;101061.78;5069629;28;20044;-71
2022/01/07 06:06:11;;;;;;;20.00;14.10;;;;;;;5.93;76.70;101084.50;5047571;28;20415;-73
2022/01/07 06:08:37;;;;;;;22.75;13.20;;;;;;;5.87;76.99;101094.72;5060526;28;20360;-72
2022/01/07 06:11:03;;;;;;;19.67;13.23;;;;;;;5.83;77.25;101068.56;5059688;28;20179;-74
2022/01/07 06:13:28;;;;;;;22.20;15.20;;;;;;;5.95;76.57;101076.78;5057597;28;20384;-74
2022/01/07 06:15:54;;;;;;;21.75;14.93;;;;;;;5.88;77.11;101098.25;5060973;28;20124;-72
2022/01/07 06:18:19;;;;;;;20.52;14.07;;;;;;;5.77;77.73;101094.44;5057962;28;20440;-76
2022/01/07 06:20:45;;;;;;;18.38;13.20;;;;;;;5.86;77.00;101086.91;5057939;28;20520;-73
2022/01/07 06:23:10;;;;;;;17.15;12.63;;;;;;;5.91;76.44;101099.22;5055653;28;20418;-72
2022/01/07 06:25:36;;;;;;;18.48;13.55;;;;;;;5.95;76.09;101108.03;5053247;28;20034;-74
2022/01/07 06:28:02;;;;;;;19.42;14.45;;;;;;;5.70;76.53;101104.66;5057064;28;20055;-73
2022/01/07 06:30:27;;;;;;;22.08;17.15;;;;;;;5.93;76.62;101114.88;5051759;28;20068;-73
2022/01/07 06:32:53;;;;;;;23.48;15.57;;;;;;;5.69;76.41;101100.28;5059636;28;20384;-73
2022/01/07 06:36:10;;;;;;;28.42;15.90;;;;;;;5.00;78.96;101097.16;5059538;28;20033;-72
2022/01/07 06:38:36;;;;;;;29.90;16.90;;;;;;;5.20;78.70;101100.44;5054176;28;20041;-73
2022/01/07 06:41:03;;;;;;;28.63;17.38;;;;;;;4.89;79.33;101085.53;5055944;28;20045;-72
2022/01/07 06:43:28;;;;;;;22.40;15.88;;;;;;;5.32;78.86;101095.63;5042153;28;20102;-72
2022/01/07 06:45:54;;;;;;;21.13;15.50;;;;;;;5.49;77.87;101123.06;5043289;28;20041;-76
2022/01/07 06:48:19;;;;;;;28.83;15.95;;;;;;;5.70;77.67;101098.56;5039159;28;20036;-82
2022/01/07 06:50:45;;;;;;;24.13;17.17;;;;;;;6.00;76.44;101114.25;5048790;28;20025;-73
2022/01/07 06:53:11;;;;;;;25.38;16.92;;;;;;;6.08;76.21;101117.97;5036254;28;20183;-73
2022/01/07 06:55:36;;;;;;;23.40;16.98;;;;;;;6.04;75.68;101125.66;5042226;28;20048;-73
2022/01/07 06:58:02;;;;;;;29.08;17.20;;;;;;;6.08;76.06;101132.72;5048358;28;20052;-72
2022/01/07 07:00:28;;;;;;;27.17;15.65;;;;;;;6.06;75.65;101111.84;5053634;28;20075;-72
2022/01/07 07:02:53;;;;;;;25.35;15.45;;;;;;;6.09;75.01;101135.38;5048640;28;20040;-76
2022/01/07 07:05:20;;;;;;;27.20;15.90;;;;;;;6.02;75.46;101135.16;5038810;28;20025;-75
2022/01/07 07:07:45;;;;;;;19.00;14.68;;;;;;;4.93;77.65;101121.19;5039847;28;20373;-74
2022/01/07 07:10:11;;;;;;;19.90;14.20;;;;;;;5.53;77.36;101138.81;5037702;28;20135;-73
2022/01/07 07:12:36;;;;;;;17.50;14.82;;;;;;;4.88;78.14;101135.75;5038795;28;20053;-73
2022/01/07 07:15:02;;;;;;;28.42;15.13;;;;;;;4.90;79.44;101128.91;5039821;28;20029;-76
2022/01/07 07:17:27;;;;;;;20.67;14.48;;;;;;;5.28;78.27;101133.66;5036302;28;20041;-74
2022/01/07 07:19:53;;;;;;;28.42;15.55;;;;;;;5.15;78.48;101146.22;5035991;28;20037;-73
2022/01/07 07:22:18;;;;;;;24.92;14.98;;;;;;;5.48;77.88;101143.88;5034868;28;20473;-78
2022/01/07 07:24:43;;;;;;;21.90;16.55;;;;;;;5.65;77.41;101152.22;5036485;28;20085;-73
2022/01/07 07:27:09;;;;;;;19.67;13.50;;;;;;;4.80;79.42;101154.59;5035359;28;20534;-74
2022/01/07 07:29:34;;;;;;;18.90;13.95;;;;;;;4.18;81.02;101156.63;5035319;28;20036;-73
2022/01/07 07:32:04;;;;;;;21.20;14.75;;;;;;;4.64;80.71;101149.66;5037004;28;20071;-74
2022/01/07 07:37:05;;;;;;;21.75;15.27;;;;;;;4.18;82.15;101185.22;5036441;28;23333;-72
2022/01/07 07:39:30;;;;;;;24.52;15.88;;;;;;;4.27;82.04;101163.91;5036895;28;20099;-73
2022/01/07 07:41:56;;;;;;;18.90;16.90;;;;;;;4.48;81.73;101188.91;5034536;28;20464;-72
2022/01/07 07:44:21;;;;;;;21.65;15.25;;;;;;;4.43;82.18;101191.34;5038242;28;20060;-71
2022/01/07 07:46:47;;;;;;;20.25;15.55;;;;;;;4.43;81.91;101193.94;5037718;28;20068;-73
2022/01/07 07:49:14;;;;;;;20.52;14.70;;;;;;;5.08;80.46;101203.25;5038637;28;20442;-75
2022/01/07 07:51:39;;;;;;;24.15;15.27;;;;;;;5.28;79.23;101198.72;5037316;28;20084;-72
2022/01/07 07:54:05;;;;;;;26.85;14.77;;;;;;;5.41;78.96;101204.38;5039252;28;20037;-74
2022/01/07 07:56:31;;;;;;;26.05;16.13;;;;;;;5.40;78.71;101190.44;5036986;28;20099;-73
2022/01/07 07:58:58;;;;;;;20.40;17.40;;;;;;;5.59;78.20;101211.88;5039438;28;20053;-75
2022/01/07 08:01:24;;;;;;;19.42;16.50;;;;;;;5.63;77.89;101198.13;5039752;28;20099;-74
2022/01/07 08:03:50;;;;;;;32.60;19.73;;;;;;;5.39;78.29;101199.09;5038240;28;20040;-72
2022/01/07 08:06:16;;;;;;;20.95;17.40;;;;;;;4.12;81.94;101218.75;5039963;28;20053;-73
2022/01/07 08:08:42;;;;;;;25.52;16.85;;;;;;;4.59;80.63;101201.47;5040027;28;20063;-72
2022/01/07 08:11:10;;;;;;;23.75;17.45;;;;;;;4.52;82.20;101203.78;5039823;28;20041;-71
2022/01/07 08:16:23;;;;;;;26.38;17.25;;;;;;;5.28;80.19;101205.66;5038069;28;20376;-72
2022/01/07 08:18:53;;;;;;;28.05;16.65;;;;;;;5.01;80.32;101187.34;5034616;28;20094;-77
2022/01/07 08:21:20;;;;;;;22.60;16.45;;;;;;;4.68;81.77;101226.03;5035964;28;20036;-73
2022/01/07 08:23:47;;;;;;;22.80;15.98;;;;;;;5.07;81.72;101205.78;5035199;28;20431;-72
2022/01/07 08:26:15;;;;;;;20.58;17.90;;;;;;;5.01;81.83;101222.06;5037787;28;20170;-72
2022/01/07 08:28:52;;;;;;;23.80;17.75;;;;;;;5.34;81.60;101225.78;5039426;28;20049;-77
2022/01/07 08:34:52;;;;;;;27.70;16.67;;;;;;;5.03;82.98;101225.63;5035637;28;20141;-72
2022/01/07 08:36:53;;;;;;;28.15;20.42;;;;;;;5.76;80.87;101239.38;5037016;28;20655;-79
2022/01/07 08:39:19;;;;;;;26.92;20.08;;;;;;;5.31;81.00;101241.28;5035344;28;20128;-75
2022/01/07 08:41:45;;;;;;;24.88;17.92;;;;;;;4.86;81.63;101245.78;5037488;28;20049;-74
2022/01/07 08:44:11;;;;;;;25.80;18.70;;;;;;;4.89;83.42;101228.53;5038375;28;20072;-75
2022/01/07 08:46:37;;;;;;;22.65;17.38;;;;;;;4.35;84.85;101245.59;5039520;28;20041;-71
2022/01/07 08:49:05;;;;;;;33.90;18.58;;;;;;;3.95;84.50;101241.44;5036466;28;20048;-74
2022/01/07 08:51:31;;;;;;;29.17;17.85;;;;;;;4.32;84.10;101223.81;5036395;28;20111;-74
2022/01/07 08:53:57;;;;;;;24.40;16.30;;;;;;;4.23;85.13;101246.00;5036094;28;20025;-72
2022/01/07 08:56:23;;;;;;;28.30;18.00;;;;;;;4.27;85.72;101230.56;5035399;28;20112;-72
2022/01/07 08:58:54;;;;;;;31.95;18.58;;;;;;;3.89;86.27;101249.00;5032745;28;20122;-72
2022/01/07 09:01:21;;;;;;;25.13;16.42;;;;;;;3.71;86.78;101246.53;5038849;28;20118;-71
2022/01/07 09:03:46;;;;;;;23.85;17.13;;;;;;;4.14;85.99;101257.75;5037389;28;20095;-74
2022/01/07 09:06:12;;;;;;;20.67;13.80;;;;;;;4.01;85.83;101282.38;5038571;28;20440;-72
2022/01/07 09:08:38;;;;;;;19.70;13.50;;;;;;;4.12;85.87;101285.38;5039866;28;20041;-72
2022/01/07 09:11:03;;;;;;;17.55;11.95;;;;;;;3.87;85.41;101283.50;5038387;28;20393;-73
2022/01/07 09:13:29;;;;;;;13.82;9.60;;;;;;;4.09;85.12;101288.72;5037649;28;20081;-73
2022/01/07 09:15:55;;;;;;;16.90;11.00;;;;;;;3.97;83.98;101285.66;5037292;28;20480;-76
2022/01/07 09:18:21;;;;;;;22.38;11.32;;;;;;;3.08;84.32;101287.06;5033340;28;20477;-70
2022/01/07 09:20:47;;;;;;;13.10;9.40;;;;;;;3.24;85.94;101270.47;5036546;28;20452;-72
2022/01/07 09:23:14;;;;;;;12.35;9.90;;;;;;;3.40;85.30;101280.69;5036759;28;20047;-73
2022/01/07 09:25:40;;;;;;;15.95;9.55;;;;;;;3.24;85.55;101294.69;5036373;28;20033;-73
2022/01/07 09:28:08;;;;;;;11.82;8.82;;;;;;;2.49;85.16;101280.94;5035304;28;20124;-80
2022/01/07 09:30:35;;;;;;;13.23;10.40;;;;;;;3.22;85.61;101283.34;5038531;28;20548;-73
2022/01/07 09:33:01;;;;;;;13.35;10.45;;;;;;;3.21;84.19;101314.41;5019131;28;20507;-74
2022/01/07 09:35:27;;;;;;;11.43;8.15;;;;;;;3.00;84.10;101311.72;5034565;28;20544;-74
2022/01/07 09:37:54;;;;;;;12.57;7.93;;;;;;;3.09;83.14;101302.69;5036091;28;20163;-74
2022/01/07 09:40:20;;;;;;;12.57;8.48;;;;;;;2.73;83.02;101302.78;5035480;28;20389;-72
2022/01/07 09:43:06;;;;;;;11.32;6.43;;;;;;;2.89;81.95;101312.16;5037655;28;20041;-73
2022/01/07 09:45:34;;;;;;;9.55;6.13;;;;;;;2.58;82.12;101304.69;5035696;28;20044;-72
2022/01/07 09:48:03;;;;;;;8.30;5.95;;;;;;;2.86;81.52;101317.19;5035078;28;20037;-74
2022/01/07 09:50:30;;;;;;;7.90;5.55;;;;;;;2.69;82.24;101319.03;5035239;28;20064;-77
2022/01/07 09:52:57;;;;;;;12.00;7.38;;;;;;;2.92;82.12;101314.00;5045035;28;20578;-79
2022/01/07 09:55:23;;;;;;;11.25;7.20;;;;;;;3.08;81.94;101319.03;5033579;28;20120;-74
2022/01/07 09:57:49;;;;;;;10.45;6.78;;;;;;;2.52;81.71;101297.50;5036638;28;20045;-73
2022/01/07 10:00:15;;;;;;;12.98;6.97;;;;;;;2.79;81.41;101309.09;5037078;28;20467;-74
2022/01/07 10:02:59;;;;;;;9.93;6.78;;;;;;;2.81;81.28;101318.69;5040338;28;20144;-73
2022/01/07 10:05:24;;;;;;;;;;;;;;;2.73;81.64;101310.56;5038044;28;20439;-73
2022/01/07 10:07:50;;;;;;;11.43;7.90;;;;;;;2.78;81.65;101295.22;5037713;28;19932;-73
2022/01/07 10:10:19;;;;;;;12.73;7.93;;;;;;;2.79;80.85;101315.16;5038410;28;20072;-73
2022/01/07 10:13:02;;;;;;;9.07;6.60;;;;;;;2.71;80.65;101312.19;5037834;28;20483;-73
2022/01/07 10:15:33;;;;;;;10.68;7.97;;;;;;;2.83;80.99;101309.25;5037205;28;20053;-74
2022/01/07 10:18:03;;;;;;;9.80;6.68;;;;;;;2.40;81.78;101314.16;5032851;28;20041;-72
2022/01/07 10:20:34;;;;;;;10.15;7.47;;;;;;;2.59;81.31;101313.31;5040588;28;20067;-72
2022/01/07 10:23:02;;;;;;;12.63;7.18;;;;;;;2.82;80.81;101302.31;5038217;28;20888;-73
2022/01/07 10:25:30;;;;;;;13.02;7.47;;;;;;;2.60;80.58;101281.41;5039572;28;20128;-73
2022/01/07 10:28:10;;;;;;;15.45;9.25;;;;;;;2.72;79.80;101295.84;5040037;28;20057;-74
2022/01/07 10:30:47;;;;;;;9.20;7.65;;;;;;;2.98;79.15;101296.13;5038369;28;20143;-73
2022/01/07 10:33:28;;;;;;;13.88;6.82;;;;;;;2.79;80.08;101297.00;5035660;28;20114;-73
2022/01/07 10:36:07;;;;;;;9.00;6.25;;;;;;;3.03;78.31;101293.75;5046737;28;20066;-72
2022/01/07 10:38:47;;;;;;;12.50;6.88;;;;;;;2.88;78.82;101284.47;5040961;28;20029;-71
2022/01/07 10:41:13;;;;;;;10.10;5.97;;;;;;;3.08;78.26;101287.06;5053487;28;20045;-72
2022/01/07 10:43:40;;;;;;;8.88;6.75;;;;;;;2.85;77.83;101299.84;5041930;28;20130;-71
2022/01/07 10:46:08;;;;;;;13.45;7.07;;;;;;;2.66;78.92;101290.34;5039781;28;20033;-70
2022/01/07 10:48:42;;;;;;;10.80;7.30;;;;;;;2.75;78.52;101295.09;5039997;28;20083;-74
2022/01/07 10:51:18;;;;;;;10.02;6.38;;;;;;;2.38;78.12;101277.81;5042038;28;20071;-75
2022/01/07 10:53:59;;;;;;;10.35;7.35;;;;;;;2.63;77.58;101298.00;5041446;28;20408;-75
2022/01/07 10:56:47;;;;;;;10.32;6.40;;;;;;;2.42;77.28;101300.47;5039501;28;20102;-74
2022/01/07 10:59:18;;;;;;;10.23;7.10;;;;;;;2.27;76.19;101266.06;5041058;28;20045;-76
2022/01/07 11:01:48;;;;;;;9.93;6.90;;;;;;;2.35;76.02;101287.16;5046050;28;20056;-73
2022/01/07 11:04:18;;;;;;;12.23;6.72;;;;;;;2.59;77.37;101285.72;5040361;28;20057;-73
2022/01/07 11:06:45;;;;;;;11.38;6.38;;;;;;;2.43;76.33;101298.75;5040973;28;20155;-74
2022/01/07 11:09:12;;;;;;;9.48;5.97;;;;;;;2.42;75.52;101297.00;5038841;28;20460;-74
2022/01/07 11:12:00;;;;;;;9.35;6.40;;;;;;;2.60;74.97;101303.03;5040382;28;20045;-74
2022/01/07 11:14:30;;;;;;;12.40;6.32;;;;;;;2.68;74.45;101299.09;5038967;28;20053;-74
2022/01/07 11:16:58;;;;;;;10.40;6.57;;;;;;;2.89;74.56;101298.31;5033007;28;20384;-73
2022/01/07 11:19:31;;;;;;;13.18;5.75;;;;;;;2.45;71.27;101291.97;5038591;28;20049;-73
2022/01/07 11:21:59;;;;;;;10.65;5.22;;;;;;;2.47;71.96;101313.63;5039709;28;20068;-74
2022/01/07 11:24:31;;;;;;;9.60;6.10;;;;;;;2.36;71.24;101309.66;5038882;28;20056;-71
2022/01/07 11:27:01;;;;;;;8.18;5.35;;;;;;;2.50;71.29;101312.06;5041197;28;20021;-72
2022/01/07 11:29:27;;;;;;;11.45;4.78;;;;;;;2.83;71.69;101308.38;5039962;28;20064;-74
2022/01/07 11:31:53;;;;;;;9.77;5.53;;;;;;;2.91;71.60;101307.03;5036549;28;20065;-74
2022/01/07 11:34:18;;;;;;;11.65;6.40;;;;;;;2.99;71.40;101302.19;5038860;28;20049;-74
2022/01/07 11:36:44;;;;;;;11.07;6.78;;;;;;;3.17;70.71;101326.38;5037292;28;20049;-73
2022/01/07 11:39:10;;;;;;;7.25;5.18;;;;;;;3.06;72.01;101310.31;5037963;28;20074;-73
2022/01/07 11:41:43;;;;;;;8.80;5.68;;;;;;;3.16;70.22;101325.47;5037711;28;20029;-76
2022/01/07 11:44:09;;;;;;;;;;;;;;;3.53;69.53;101310.63;5038776;28;20053;-73
2022/01/07 11:46:35;;;;;;;12.15;5.88;;;;;;;2.80;66.61;101303.06;5021832;28;20375;-74
2022/01/07 11:49:03;;;;;;;8.52;5.18;;;;;;;2.63;67.54;101297.13;5039100;28;20041;-73
2022/01/07 11:51:37;;;;;;;8.32;5.47;;;;;;;3.12;67.62;101292.44;5038259;28;20045;-75
2022/01/07 11:54:05;;;;;;;8.63;5.35;;;;;;;3.05;65.92;101305.97;5032927;28;20034;-73
2022/01/07 11:56:32;;;;;;;11.88;7.05;;;;;;;3.38;66.31;101287.50;5034353;28;20546;-75
2022/01/07 11:59:10;;;;;;;8.93;5.55;;;;;;;3.65;68.33;101292.09;5037191;28;20393;-73
2022/01/07 12:01:39;;;;;;;8.40;4.57;;;;;;;3.75;66.40;101313.31;5038529;28;20037;-73
2022/01/07 12:04:14;;;;;;;7.45;4.78;;;;;;;3.51;66.04;101304.47;5037825;28;20182;-74
2022/01/07 12:06:39;;;;;;;7.80;4.95;;;;;;;3.54;64.71;101310.69;5035711;28;20045;-76
2022/01/07 12:09:20;;;;;;;8.07;5.13;;;;;;;3.48;64.35;101294.84;5037143;28;20115;-74
2022/01/07 12:12:00;;;;;;;12.40;4.57;;;;;;;3.85;65.91;101311.13;5039695;28;20106;-73
2022/01/07 12:14:26;;;;;;;6.05;3.97;;;;;;;3.77;65.68;101319.47;5038919;28;20094;-75
2022/01/07 12:16:57;;;;;;;7.72;4.47;;;;;;;3.58;63.51;101314.28;5035145;28;20048;-74